Terminal Aerodrome Forecast
Issued by NWS Cleveland, OH

Home | Current Version | Previous Version | Graphics & Text | Print | Product List | Glossary On
Versions: 1 2 3 4 5 6 7 8 9 10 11 12 13 14
000
FTUS41 KCLE 281132
TAFERI
TAF
KERI 281132Z 2812/2912 29007KT P6SM FEW030 BKN200
     FM281400 34005KT P6SM FEW030
     FM282000 02009KT P6SM SKC
     FM290200 09003KT P6SM SKC=

USA.gov is the U.S. government's official web portal to all federal, state and local government web resources and services.